14 Oct 2019 22:50 UTC 2019287+22:50 UTC

Overview Datums Bench Marks Data Query Site Visit Daily QC Messages Attributes

171: National Park Service - Bird Island

27° 29' 4" N   97° 19' 5" W
NPSBI
United States National Park Service United States National Park Service

Station Information

National Park Service - Bird Island
National Park Service - Bird Island
more pictures
 
Station Name:National Park Service - Bird Island
DNR ID:171
Location:27° 29' 4" N, 97° 19' 5" W

Water Level Forecasts

Latest Observations

Series Metric English Marine Observed at
Water Temperature 23.9 °C 75.0 °F 75.0 °F Oct 14 17:42 CDT
00h07m ago
Salinity 38.000 psu 38.000 psu 38.000 psu Oct 14 17:42 CDT
00h07m ago
Dissolved Oxygen 8.10 mg/L 0.000506 lb/ft3 0.000506 lb/ft3 Oct 14 17:42 CDT
00h07m ago

Maps

National Park Service - Bird Island
All Stations in Area
Entire Network
 

Recent Observations

Date/Time Water
Temp (°F)
Sal (psu) pH (pH) Turb (ntu) DO (lb/ft3)
Oct 14 17:00 CDT 75.2 37.900 0.000493
Oct 14 16:00 CDT 73.0 38.000 0.000484
Oct 14 15:00 CDT 75.6 37.700 0.000577
Oct 14 14:00 CDT 72.3 37.900 0.000472
Oct 14 13:00 CDT 73.6 37.500 0.000480
Oct 14 12:00 CDT 72.9 37.400 0.000460
Oct 14 11:00 CDT 71.8 37.400 0.000461
Oct 14 10:00 CDT 71.4 37.200 0.000380
Oct 14 09:00 CDT 71.1 37.200 0.000375
Oct 14 08:00 CDT 71.1 37.300 0.000360
Oct 14 07:00 CDT 71.2 37.300 0.000353
Oct 14 06:00 CDT 71.4 37.300 0.000354
Oct 14 05:00 CDT 71.6 37.300 0.000373
Oct 14 04:00 CDT 71.6 37.300 0.000403
Oct 14 03:00 CDT 71.4 37.200 0.000415
Oct 14 02:00 CDT 71.4 37.200 0.000416
Oct 14 01:00 CDT 71.6 37.300 0.000424
Oct 14 00:00 CDT 71.2 37.200 0.000395
Oct 13 23:00 CDT 71.1 37.200 0.000394
Oct 13 22:00 CDT 70.9 37.200 0.000401
Oct 13 21:00 CDT 71.2 37.100 0.000435
Oct 13 20:00 CDT 71.1 37.100 0.000467
Oct 13 19:00 CDT 70.9 37.000 0.000478
Oct 13 18:00 CDT 70.7 37.100 0.000483
Oct 13 17:00 CDT 70.7 37.300 0.000489

Historical Data Availability